createdAt,value
2022-11-20T09:05:22.672Z,99.90
2022-11-20T09:07:49.500Z,99.90
2022-11-20T09:10:23.970Z,97.80
2022-11-20T09:12:52.857Z,93.00
2022-11-20T09:15:20.589Z,91.00
2022-11-20T09:17:59.776Z,90.00
2022-11-20T09:20:28.117Z,90.20
2022-11-20T09:22:55.047Z,87.90
2022-11-20T09:25:22.815Z,91.00
2022-11-20T09:27:55.468Z,90.80
2022-11-20T09:30:22.411Z,89.60
2022-11-20T09:32:49.323Z,88.90
2022-11-20T09:35:16.305Z,86.90
2022-11-20T09:37:43.257Z,90.60
2022-11-20T09:40:30.468Z,83.80
2022-11-20T09:43:03.186Z,85.90
2022-11-20T09:45:52.423Z,90.90
2022-11-20T09:48:42.339Z,89.40
2022-11-20T09:51:16.176Z,90.40
2022-11-20T09:54:08.818Z,90.10
2022-11-20T09:56:42.475Z,87.50
2022-11-20T09:59:23.502Z,88.00
2022-11-20T10:01:52.230Z,87.30
2022-11-20T10:04:21.596Z,86.10
2022-11-20T10:07:30.976Z,84.00
2022-11-20T10:09:54.923Z,80.80
2022-11-20T10:12:43.425Z,79.70
2022-11-20T10:15:31.122Z,78.20
2022-11-20T10:18:31.520Z,78.10
2022-11-20T10:21:04.333Z,78.20
2022-11-20T10:24:02.186Z,78.20
2022-11-20T10:27:03.055Z,78.30
2022-11-20T10:29:34.874Z,79.30
2022-11-20T10:32:12.747Z,77.90
2022-11-20T10:34:59.604Z,78.10
2022-11-20T10:37:28.562Z,78.50
2022-11-20T10:40:17.450Z,77.80
2022-11-20T10:42:47.617Z,79.80
2022-11-20T10:45:26.175Z,79.90
2022-11-20T10:48:09.071Z,79.00
2022-11-20T10:50:38.749Z,79.30
2022-11-20T10:53:25.315Z,79.00
2022-11-20T10:55:59.596Z,78.10
2022-11-20T10:58:35.507Z,80.40
2022-11-20T11:01:24.844Z,81.40
2022-11-20T11:03:56.593Z,83.00
2022-11-20T11:06:42.087Z,84.60
2022-11-20T11:09:20.738Z,85.00
2022-11-20T11:11:48.339Z,83.80
2022-11-20T11:14:17.343Z,83.20
2022-11-20T11:16:58.516Z,83.50
2022-11-20T11:19:26.169Z,85.30
2022-11-20T11:21:57.636Z,85.20
2022-11-20T11:24:45.997Z,83.30
2022-11-20T11:27:17.985Z,82.30
2022-11-20T11:29:46.324Z,82.70
2022-11-20T11:32:16.591Z,84.90
2022-11-20T11:34:43.503Z,84.00
2022-11-20T11:37:20.711Z,84.30
2022-11-20T11:39:55.055Z,84.60
2022-11-20T11:42:31.749Z,84.70
2022-11-20T11:45:07.074Z,84.10
2022-11-20T11:47:38.613Z,85.40
2022-11-20T11:50:11.339Z,84.30
2022-11-20T11:52:52.807Z,84.70
2022-11-20T11:55:44.845Z,86.70
2022-11-20T11:58:47.219Z,86.00
2022-11-20T12:01:26.175Z,84.20
2022-11-20T12:04:08.854Z,86.30
2022-11-20T12:06:40.135Z,84.20
2022-11-20T12:09:11.243Z,85.70
2022-11-20T12:12:00.110Z,85.50
2022-11-20T12:14:27.895Z,85.50
2022-11-20T12:16:56.774Z,86.60
2022-11-20T12:19:25.637Z,89.10
2022-11-20T12:22:05.232Z,90.00
2022-11-20T12:24:43.816Z,87.30
2022-11-20T12:27:36.653Z,89.10
2022-11-20T12:30:16.396Z,88.60
2022-11-20T12:33:17.122Z,88.50
2022-11-20T12:36:07.833Z,90.30
2022-11-20T12:38:40.645Z,90.60
2022-11-20T12:41:51.313Z,90.00
2022-11-20T12:44:54.422Z,90.20
2022-11-20T12:47:45.534Z,90.10
2022-11-20T12:50:21.718Z,89.00
2022-11-20T12:53:12.074Z,88.70
2022-11-20T12:56:00.099Z,89.10
2022-11-20T12:58:40.401Z,89.10
2022-11-20T13:01:48.942Z,88.20
2022-11-20T13:04:21.889Z,87.70
2022-11-20T13:06:50.123Z,90.20
2022-11-20T13:09:20.450Z,87.00
2022-11-20T13:12:05.473Z,87.30
2022-11-20T13:14:56.401Z,89.70
2022-11-20T13:17:36.983Z,89.40
2022-11-20T13:20:07.837Z,91.10
2022-11-20T13:23:00.800Z,91.10
2022-11-20T13:25:34.698Z,92.50
2022-11-20T13:28:09.956Z,91.70
2022-11-20T13:30:38.328Z,92.90
2022-11-20T13:33:28.019Z,91.50
2022-11-20T13:36:27.156Z,91.90
2022-11-20T13:38:56.701Z,91.60
2022-11-20T13:41:29.110Z,91.60
2022-11-20T13:44:18.624Z,90.00
2022-11-20T13:46:50.203Z,90.90
2022-11-20T13:49:21.221Z,90.80
2022-11-20T13:51:55.227Z,92.20
2022-11-20T13:54:44.243Z,92.40
2022-11-20T13:57:25.858Z,90.40
2022-11-20T14:00:03.016Z,91.70
2022-11-20T14:02:33.748Z,91.60
2022-11-20T14:05:02.472Z,91.20
2022-11-20T14:07:38.626Z,90.10
2022-11-20T14:10:06.625Z,91.60
2022-11-20T14:12:34.970Z,93.70
2022-11-20T14:15:01.940Z,92.60
2022-11-20T14:17:34.967Z,93.10
2022-11-20T14:20:08.003Z,92.70
2022-11-20T14:22:34.999Z,92.50
2022-11-20T14:25:19.657Z,92.90
2022-11-20T14:27:52.273Z,93.30
2022-11-20T14:30:22.752Z,94.10
2022-11-20T14:32:51.929Z,94.90
2022-11-20T14:35:26.624Z,95.10
2022-11-20T14:37:55.030Z,93.70
2022-11-20T14:40:36.203Z,94.00
2022-11-20T14:43:17.403Z,95.40
2022-11-20T14:45:49.996Z,94.60
2022-11-20T14:48:17.390Z,95.10
2022-11-20T14:50:44.338Z,95.00
2022-11-20T14:53:11.413Z,94.80
2022-11-20T14:55:39.708Z,94.80
2022-11-20T14:58:21.848Z,94.70
2022-11-20T15:00:57.288Z,95.70
2022-11-20T15:03:32.070Z,95.50
2022-11-20T15:06:01.502Z,95.70
2022-11-20T15:08:28.782Z,96.10
2022-11-20T15:10:56.679Z,96.10
2022-11-20T15:13:32.404Z,97.30
2022-11-20T15:16:01.701Z,96.20
2022-11-20T15:18:37.532Z,96.60
2022-11-20T15:21:11.111Z,96.20
2022-11-20T15:23:40.075Z,97.00
2022-11-20T15:26:07.832Z,96.00
2022-11-20T15:28:35.448Z,95.40
2022-11-20T15:31:05.076Z,97.40
2022-11-20T15:33:35.411Z,96.50
2022-11-20T15:36:02.835Z,96.70
2022-11-20T15:38:29.878Z,96.30
2022-11-20T15:40:57.061Z,96.50
2022-11-20T15:43:24.495Z,95.20
2022-11-20T15:46:16.575Z,95.20
2022-11-20T15:48:48.175Z,95.60
2022-11-20T15:51:29.919Z,94.00
2022-11-20T15:53:58.725Z,95.90
2022-11-20T15:56:27.801Z,94.70
2022-11-20T15:58:55.151Z,96.00
2022-11-20T16:01:23.246Z,96.30
2022-11-20T16:03:51.184Z,95.90
2022-11-20T16:06:18.216Z,96.70
2022-11-20T16:08:45.365Z,95.50
2022-11-20T16:11:15.169Z,95.30
2022-11-20T16:14:01.196Z,95.90
2022-11-20T16:16:36.572Z,96.40
2022-11-20T16:19:03.811Z,96.40
2022-11-20T16:21:33.979Z,96.20
2022-11-20T16:24:05.666Z,95.80
2022-11-20T16:26:33.426Z,95.50
2022-11-20T16:29:01.740Z,95.30
2022-11-20T16:31:28.689Z,96.50
2022-11-20T16:33:57.864Z,96.80
2022-11-20T16:36:26.535Z,97.20
2022-11-20T16:38:55.118Z,96.80
2022-11-20T16:41:22.778Z,96.00
2022-11-20T16:43:51.754Z,95.40
2022-11-20T16:46:21.188Z,96.80
2022-11-20T16:48:56.232Z,95.20
2022-11-20T16:51:24.372Z,93.60
2022-11-20T16:53:51.776Z,94.00
2022-11-20T16:56:21.345Z,94.60
2022-11-20T16:58:50.141Z,94.20
2022-11-20T17:01:21.817Z,93.10
2022-11-20T17:04:02.241Z,93.10
2022-11-20T17:06:38.174Z,93.70
2022-11-20T17:09:05.385Z,93.20
2022-11-20T17:11:33.634Z,92.70
2022-11-20T17:14:00.861Z,91.80
2022-11-20T17:16:28.089Z,91.90
2022-11-20T17:19:01.330Z,93.20
2022-11-20T17:21:30.476Z,91.60
2022-11-20T17:24:02.218Z,92.70
2022-11-20T17:26:32.202Z,92.50
2022-11-20T17:29:02.073Z,91.80
2022-11-20T17:31:29.745Z,92.40
2022-11-20T17:33:59.739Z,92.50
2022-11-20T17:36:27.812Z,92.20
2022-11-20T17:38:54.622Z,92.20
2022-11-20T17:41:23.794Z,93.30
2022-11-20T17:43:54.765Z,93.00
2022-11-20T17:46:24.423Z,93.50
2022-11-20T17:48:51.748Z,94.20
2022-11-20T17:51:24.601Z,93.50
2022-11-20T17:53:54.513Z,94.20
2022-11-20T17:56:39.916Z,93.30
2022-11-20T17:59:12.544Z,92.50
2022-11-20T18:01:40.667Z,92.20
2022-11-20T18:04:07.559Z,92.60
2022-11-20T18:06:34.577Z,92.20
2022-11-20T18:09:03.247Z,92.20
2022-11-20T18:11:36.372Z,93.20
2022-11-20T18:14:25.480Z,91.90
2022-11-20T18:16:56.914Z,92.70
2022-11-20T18:19:28.645Z,93.80
2022-11-20T18:22:04.136Z,92.60
2022-11-20T18:24:36.000Z,93.10
2022-11-20T18:27:03.465Z,93.20
2022-11-20T18:29:33.010Z,93.00
2022-11-20T18:32:00.779Z,94.30
2022-11-20T18:34:28.084Z,93.70
2022-11-20T18:36:54.978Z,92.90
2022-11-20T18:39:22.010Z,93.50
2022-11-20T18:42:09.778Z,93.60
2022-11-20T18:44:51.641Z,93.50
2022-11-20T18:47:22.598Z,94.00
2022-11-20T18:49:54.936Z,94.60
2022-11-20T18:52:38.361Z,94.30
2022-11-20T18:55:08.104Z,94.70
2022-11-20T18:57:37.426Z,93.50
2022-11-20T19:00:09.661Z,93.10
2022-11-20T19:02:43.009Z,94.10
2022-11-20T19:05:12.261Z,93.20
2022-11-20T19:07:39.463Z,95.00
2022-11-20T19:10:07.080Z,94.60
2022-11-20T19:12:34.015Z,93.80
2022-11-20T19:15:02.177Z,93.30
2022-11-20T19:17:30.838Z,94.10
2022-11-20T19:19:57.695Z,94.10
2022-11-20T19:22:27.324Z,95.00
2022-11-20T19:24:54.221Z,94.60
2022-11-20T19:27:21.433Z,95.10
2022-11-20T19:29:48.554Z,94.90
2022-11-20T19:32:16.473Z,95.70
2022-11-20T19:34:43.855Z,95.80
2022-11-20T19:37:10.792Z,96.00
2022-11-20T19:39:38.411Z,96.80
2022-11-20T19:42:05.648Z,96.50
2022-11-20T19:44:33.589Z,96.50
2022-11-20T19:47:03.167Z,95.80
2022-11-20T19:49:31.280Z,95.90
2022-11-20T19:51:59.708Z,95.40
2022-11-20T19:54:31.093Z,96.90
2022-11-20T19:56:57.959Z,96.30
2022-11-20T19:59:27.085Z,95.80
2022-11-20T20:01:56.180Z,95.70
2022-11-20T20:04:23.197Z,94.50
2022-11-20T20:06:52.848Z,93.50
2022-11-20T20:09:23.936Z,92.20
2022-11-20T20:11:50.981Z,91.60
2022-11-20T20:14:18.438Z,92.00
2022-11-20T20:16:45.724Z,90.40
2022-11-20T20:19:16.000Z,90.50
2022-11-20T20:21:44.136Z,92.10
2022-11-20T20:24:12.293Z,90.60
2022-11-20T20:26:41.188Z,91.10
2022-11-20T20:29:08.148Z,90.30
2022-11-20T20:31:36.685Z,89.70
2022-11-20T20:34:05.420Z,90.00
2022-11-20T20:36:32.357Z,90.20
2022-11-20T20:38:59.810Z,90.70
2022-11-20T20:41:26.946Z,91.70
2022-11-20T20:44:12.327Z,91.90
2022-11-20T20:46:40.472Z,91.90
2022-11-20T20:49:08.083Z,92.00
2022-11-20T20:51:35.241Z,92.50
2022-11-20T20:54:02.838Z,94.30
2022-11-20T20:56:29.779Z,93.60
2022-11-20T20:58:56.821Z,94.90
2022-11-20T21:01:28.352Z,94.90
2022-11-20T21:03:56.161Z,95.40
2022-11-20T21:06:23.143Z,95.90
2022-11-20T21:08:50.688Z,96.40
2022-11-20T21:11:19.504Z,97.00
2022-11-20T21:13:47.598Z,97.50
2022-11-20T21:16:16.092Z,98.90
2022-11-20T21:18:43.418Z,98.10
2022-11-20T21:21:31.703Z,98.60
2022-11-20T21:23:58.755Z,98.30
2022-11-20T21:26:26.016Z,98.50
2022-11-20T21:28:53.217Z,98.80
2022-11-20T21:31:25.117Z,98.90
2022-11-20T21:33:54.002Z,98.40
2022-11-20T21:36:23.124Z,98.80
2022-11-20T21:38:51.959Z,99.00
2022-11-20T21:41:18.948Z,99.80
2022-11-20T21:43:51.555Z,99.60
2022-11-20T21:46:25.835Z,99.90
2022-11-20T21:48:53.179Z,99.10
2022-11-20T21:51:22.229Z,99.30
2022-11-20T21:53:50.539Z,99.90
2022-11-20T21:56:20.757Z,99.90
2022-11-20T21:58:48.655Z,99.10
2022-11-20T22:01:20.756Z,99.30
2022-11-20T22:03:57.171Z,99.20
2022-11-20T22:06:32.634Z,99.20
2022-11-20T22:09:00.591Z,98.90
2022-11-20T22:11:27.474Z,99.40
2022-11-20T22:14:12.731Z,99.70
2022-11-20T22:16:39.603Z,99.60
2022-11-20T22:19:06.931Z,99.60
2022-11-20T22:21:34.852Z,99.90
2022-11-20T22:24:01.981Z,99.90
2022-11-20T22:26:33.918Z,99.90
2022-11-20T22:29:04.440Z,99.90
2022-11-20T22:31:31.839Z,99.90
2022-11-20T22:34:02.320Z,99.90
2022-11-20T22:36:31.104Z,99.90
2022-11-20T22:38:58.754Z,99.90
2022-11-20T22:41:29.424Z,99.90
2022-11-20T22:44:01.177Z,99.90
2022-11-20T22:46:31.254Z,99.90
2022-11-20T22:49:00.547Z,99.90
2022-11-20T22:51:30.149Z,99.90
2022-11-20T22:53:57.149Z,99.90
2022-11-20T22:56:24.576Z,99.90
2022-11-20T22:58:53.631Z,99.90
2022-11-20T23:01:26.198Z,99.90
2022-11-20T23:03:56.873Z,99.90
2022-11-20T23:06:24.571Z,99.90
2022-11-20T23:08:52.350Z,99.90
2022-11-20T23:11:22.412Z,99.90
2022-11-20T23:13:58.686Z,99.90
2022-11-20T23:16:29.150Z,99.90
2022-11-20T23:18:58.129Z,99.90
2022-11-20T23:21:25.481Z,99.90
2022-11-20T23:23:57.005Z,99.90
2022-11-20T23:26:27.036Z,99.90
2022-11-20T23:28:56.234Z,99.90
2022-11-20T23:31:23.504Z,99.90
2022-11-20T23:33:50.580Z,99.90
2022-11-20T23:36:17.794Z,99.90
2022-11-20T23:38:44.746Z,99.90
2022-11-20T23:41:13.035Z,99.90
2022-11-20T23:43:40.385Z,99.90
2022-11-20T23:46:07.372Z,99.90
2022-11-20T23:48:36.595Z,99.90
2022-11-20T23:51:04.917Z,99.90
2022-11-20T23:53:32.418Z,99.90
2022-11-20T23:56:02.020Z,99.90
2022-11-20T23:58:37.353Z,99.90
